Time;durP1;ratioP1;P1;durP2;ratioP2;P2;SDS_P1;SDS_P2;PMS_P1;PMS_P2;Temp;Humidity;BMP_temperature;BMP_pressure;BME280_temperature;BME280_humidity;BME280_pressure;Samples;Min_cycle;Max_cycle;Signal;HPM_P1;HPM_P2
2022/04/23 00:01:36;;;;;;;31.03;23.80;;;;;;;10.28;92.57;99911.44;5115594;28;20684;-67
2022/04/23 00:04:09;;;;;;;27.23;23.13;;;;;;;10.23;93.10;99903.00;5115330;28;20200;-67
2022/04/23 00:06:40;;;;;;;33.20;24.33;;;;;;;10.17;93.56;99904.16;5114879;28;20220;-67
2022/04/23 00:09:07;;;;;;;35.80;23.80;;;;;;;10.18;93.23;99903.22;5115269;28;20186;-67
2022/04/23 00:11:37;;;;;;;29.17;24.90;;;;;;;10.06;93.79;99907.31;5114951;28;20205;-67
2022/04/23 00:14:07;;;;;;;29.30;24.20;;;;;;;10.05;93.98;99905.63;5114937;28;20188;-67
2022/04/23 00:16:37;;;;;;;28.07;24.97;;;;;;;10.02;94.28;99912.78;5115154;28;20219;-67
2022/04/23 00:19:08;;;;;;;27.80;24.30;;;;;;;9.94;94.78;99915.81;5114795;28;20208;-67
2022/04/23 00:21:39;;;;;;;33.43;24.33;;;;;;;9.99;94.60;99905.09;5115212;28;20172;-67
2022/04/23 00:24:08;;;;;;;33.70;25.30;;;;;;;10.00;94.60;99906.78;5115018;28;20183;-67
2022/04/23 00:26:36;;;;;;;31.03;26.07;;;;;;;9.99;95.02;99905.94;5114552;28;20212;-67
2022/04/23 00:29:03;;;;;;;29.07;24.27;;;;;;;10.02;94.72;99910.19;5114588;28;20212;-67
2022/04/23 00:31:41;;;;;;;34.73;26.10;;;;;;;9.94;95.59;99915.81;5114534;28;20188;-67
2022/04/23 00:34:19;;;;;;;34.10;26.07;;;;;;;9.91;95.94;99915.94;5115069;28;20173;-67
2022/04/23 00:36:46;;;;;;;32.80;26.10;;;;;;;9.93;95.71;99917.59;5114451;28;20216;-67
2022/04/23 00:39:17;;;;;;;35.70;26.63;;;;;;;9.94;95.86;99913.19;5114671;28;20201;-67
2022/04/23 00:41:47;;;;;;;35.83;27.03;;;;;;;9.90;96.00;99911.66;5114272;28;20176;-67
2022/04/23 00:44:16;;;;;;;31.07;26.40;;;;;;;9.80;96.72;99906.06;5114295;28;20176;-67
2022/04/23 00:46:46;;;;;;;33.37;26.67;;;;;;;9.83;96.69;99905.03;5114188;28;20218;-67
2022/04/23 00:49:15;;;;;;;38.17;28.13;;;;;;;9.88;96.75;99906.50;5114538;28;20195;-67
2022/04/23 00:51:49;;;;;;;36.60;27.50;;;;;;;9.87;96.84;99911.81;5114698;28;20176;-67
2022/04/23 00:54:18;;;;;;;37.17;28.57;;;;;;;9.79;97.04;99903.53;5114724;28;20180;-67
2022/04/23 00:56:46;;;;;;;32.57;26.20;;;;;;;9.83;97.12;99905.03;5113834;28;20218;-67
2022/04/23 00:59:21;;;;;;;33.60;27.47;;;;;;;9.75;97.45;99904.59;5114082;28;20485;-67
2022/04/23 01:01:53;;;;;;;29.93;24.93;;;;;;;9.81;97.45;99905.13;5114280;28;20164;-67
2022/04/23 01:04:26;;;;;;;34.67;26.27;;;;;;;9.88;97.10;99910.88;5114571;28;20184;-67
2022/04/23 01:06:53;;;;;;;33.17;26.87;;;;;;;9.84;97.30;99909.34;5114204;28;20249;-67
2022/04/23 01:09:21;;;;;;;32.03;25.13;;;;;;;9.86;97.13;99910.13;5113803;28;20279;-67
2022/04/23 01:11:49;;;;;;;35.53;26.70;;;;;;;9.74;97.65;99906.38;5113855;28;20183;-67
2022/04/23 01:14:19;;;;;;;36.13;28.27;;;;;;;9.69;97.87;99905.75;5114128;28;20191;-67
2022/04/23 01:16:49;;;;;;;33.20;27.40;;;;;;;9.71;98.03;99905.66;5114012;28;20297;-67
2022/04/23 01:19:17;;;;;;;36.17;28.30;;;;;;;9.69;98.09;99910.13;5114341;28;20235;-67
2022/04/23 01:21:47;;;;;;;34.90;27.17;;;;;;;9.58;98.95;99914.13;5113690;28;20185;-67
2022/04/23 01:24:19;;;;;;;35.37;27.37;;;;;;;9.63;98.74;99913.88;5113762;28;20254;-67
2022/04/23 01:27:10;;;;;;;36.33;27.37;;;;;;;9.73;98.66;99915.13;5113706;28;20203;-67
2022/04/23 01:29:38;;;;;;;40.23;28.57;;;;;;;9.70;98.31;99910.03;5114180;28;20638;-67
2022/04/23 01:32:09;;;;;;;41.63;29.53;;;;;;;9.50;99.49;99913.69;5114469;28;20535;-67
2022/04/23 01:34:36;;;;;;;44.30;28.93;;;;;;;9.55;99.62;99914.28;5113668;28;20642;-67
2022/04/23 01:37:04;;;;;;;44.30;29.10;;;;;;;9.56;99.51;99909.91;5113916;28;20621;-67
2022/04/23 01:39:34;;;;;;;42.70;29.87;;;;;;;9.64;99.07;99906.00;5113941;28;20163;-67
2022/04/23 01:42:07;;;;;;;38.20;29.00;;;;;;;9.59;99.17;99902.75;5114036;28;20550;-67
2022/04/23 01:44:35;;;;;;;39.67;27.80;;;;;;;9.58;99.26;99911.53;5113976;28;20554;-67
2022/04/23 01:47:08;;;;;;;34.93;27.90;;;;;;;9.61;99.29;99903.53;5113774;28;20579;-67
2022/04/23 01:49:36;;;;;;;40.47;27.90;;;;;;;9.54;99.50;99909.13;5113530;28;20537;-67
2022/04/23 01:52:05;;;;;;;36.70;29.27;;;;;;;9.55;99.43;99906.44;5113482;28;20190;-67
2022/04/23 01:54:36;;;;;;;41.73;27.70;;;;;;;9.57;100.00;99907.22;5113450;28;20592;-67
2022/04/23 01:57:11;;;;;;;42.90;28.73;;;;;;;9.57;99.56;99908.97;5113383;28;20551;-67
2022/04/23 01:59:39;;;;;;;40.10;28.47;;;;;;;9.46;99.98;99908.66;5114029;28;20168;-67
2022/04/23 02:02:17;;;;;;;37.67;27.63;;;;;;;9.47;100.00;99903.38;5095402;28;20198;-67
2022/04/23 02:04:49;;;;;;;41.40;27.40;;;;;;;9.45;100.00;99900.00;5113705;28;20588;-67
2022/04/23 02:07:20;;;;;;;32.90;26.60;;;;;;;9.41;100.00;99906.28;5113340;28;20206;-67
2022/04/23 02:09:50;;;;;;;40.63;28.07;;;;;;;9.37;100.00;99905.59;5115143;28;20177;-67
2022/04/23 02:12:26;;;;;;;41.60;28.97;;;;;;;9.46;100.00;99906.91;5117891;28;20192;-67
2022/04/23 02:14:57;;;;;;;35.93;28.73;;;;;;;9.49;100.00;99900.66;5118084;28;20186;-67
2022/04/23 02:17:37;;;;;;;36.70;28.10;;;;;;;9.42;100.00;99907.13;5117393;28;20694;-67
2022/04/23 02:20:08;;;;;;;37.03;26.87;;;;;;;9.39;100.00;99900.28;5117445;28;20662;-67
2022/04/23 02:22:39;;;;;;;33.83;26.80;;;;;;;9.34;100.00;99907.50;5117301;28;20687;-67
2022/04/23 02:25:07;;;;;;;41.17;27.27;;;;;;;9.52;100.00;99911.00;5117301;28;20207;-67
2022/04/23 02:27:42;;;;;;;37.00;26.33;;;;;;;9.41;100.00;99913.28;5116874;28;20212;-67
2022/04/23 02:30:16;;;;;;;31.90;26.17;;;;;;;9.48;100.00;99907.66;5116884;28;20169;-67
2022/04/23 02:33:06;;;;;;;33.50;26.73;;;;;;;9.42;100.00;99914.97;5117476;28;20176;-67
2022/04/23 02:35:39;;;;;;;33.67;25.47;;;;;;;9.47;100.00;99908.59;5117000;28;20209;-67
2022/04/23 02:38:07;;;;;;;37.00;27.37;;;;;;;9.44;100.00;99913.97;5117012;28;20239;-67
2022/04/23 02:40:38;;;;;;;33.70;27.93;;;;;;;9.35;100.00;99915.25;5117231;28;20190;-67
2022/04/23 02:43:07;;;;;;;34.57;25.83;;;;;;;9.41;100.00;99921.94;5116933;28;20202;-67
2022/04/23 02:45:37;;;;;;;38.93;27.07;;;;;;;9.37;100.00;99912.59;5116438;28;20193;-67
2022/04/23 02:48:07;;;;;;;36.53;26.93;;;;;;;9.31;100.00;99913.72;5116847;28;20182;-67
2022/04/23 02:50:38;;;;;;;40.10;27.07;;;;;;;9.40;100.00;99915.03;5116815;28;20193;-67
2022/04/23 02:53:07;;;;;;;33.57;25.70;;;;;;;9.39;100.00;99910.75;5117030;28;20194;-67
2022/04/23 02:55:36;;;;;;;35.03;26.33;;;;;;;9.43;100.00;99914.91;5116329;28;20189;-67
2022/04/23 02:58:08;;;;;;;36.93;26.67;;;;;;;9.48;100.00;99920.72;5116360;28;20196;-67
2022/04/23 03:00:40;;;;;;;35.17;27.63;;;;;;;9.38;100.00;99914.28;5116655;28;20202;-67
2022/04/23 03:03:11;;;;;;;37.23;26.80;;;;;;;9.48;100.00;99918.13;5116727;28;20202;-67
2022/04/23 03:05:42;;;;;;;34.07;27.53;;;;;;;9.36;100.00;99916.97;5116539;28;20170;-67
2022/04/23 03:08:11;;;;;;;36.30;25.33;;;;;;;9.34;100.00;99916.19;5116208;28;20210;-67
2022/04/23 03:10:44;;;;;;;34.37;25.30;;;;;;;9.35;100.00;99909.19;5116082;28;20174;-67
2022/04/23 03:13:16;;;;;;;37.63;28.97;;;;;;;9.33;100.00;99911.03;5116394;28;20262;-67
2022/04/23 03:15:45;;;;;;;33.63;26.00;;;;;;;9.31;100.00;99913.72;5116582;28;20230;-67
2022/04/23 03:18:16;;;;;;;35.73;26.43;;;;;;;9.43;100.00;99914.03;5098776;28;20170;-67
2022/04/23 03:20:49;;;;;;;34.13;25.73;;;;;;;9.41;100.00;99914.13;5116230;28;20224;-67
2022/04/23 03:23:20;;;;;;;38.17;26.80;;;;;;;9.42;100.00;99914.97;5115810;28;20214;-67
2022/04/23 03:25:59;;;;;;;34.27;25.90;;;;;;;9.41;100.00;99908.88;5116049;28;20210;-67
2022/04/23 03:28:28;;;;;;;29.97;24.23;;;;;;;9.34;100.00;99907.50;5116340;28;20169;-67
2022/04/23 03:30:58;;;;;;;33.03;25.50;;;;;;;9.34;100.00;99905.72;5116061;28;20174;-67
2022/04/23 03:33:28;;;;;;;38.47;27.63;;;;;;;9.40;100.00;99911.59;5115667;28;20185;-67
2022/04/23 03:35:58;;;;;;;37.70;25.87;;;;;;;9.35;100.00;99906.56;5115491;28;20217;-67
2022/04/23 03:38:26;;;;;;;31.33;25.97;;;;;;;9.37;100.00;99908.22;5115603;28;20191;-67
2022/04/23 03:41:04;;;;;;;37.83;26.27;;;;;;;9.38;100.00;99903.84;5115529;28;20552;-67
2022/04/23 03:43:39;;;;;;;38.50;25.87;;;;;;;9.24;100.00;99895.81;5115497;28;20194;-67
2022/04/23 03:46:06;;;;;;;32.83;25.90;;;;;;;9.32;100.00;99898.91;5116043;28;20219;-66
2022/04/23 03:48:34;;;;;;;34.77;26.57;;;;;;;9.30;100.00;99891.16;5115378;28;20187;-66
2022/04/23 03:51:01;;;;;;;37.83;26.37;;;;;;;9.39;100.00;99902.91;5115305;28;20186;-67
2022/04/23 03:53:31;;;;;;;36.20;27.53;;;;;;;9.39;100.00;99900.28;5115538;28;20194;-67
2022/04/23 03:55:58;;;;;;;34.77;27.90;;;;;;;9.38;100.00;99898.59;5115123;28;20210;-67
2022/04/23 03:58:29;;;;;;;33.10;25.57;;;;;;;9.30;100.00;99898.13;5115795;28;20186;-67
2022/04/23 04:01:00;;;;;;;30.13;25.47;;;;;;;9.28;100.00;99892.13;5115737;28;20186;-67
2022/04/23 04:03:30;;;;;;;35.73;27.03;;;;;;;9.18;100.00;99896.13;5115368;28;20192;-67
2022/04/23 04:05:59;;;;;;;37.27;26.90;;;;;;;9.29;100.00;99899.06;5115002;28;20206;-67
2022/04/23 04:08:27;;;;;;;31.70;25.50;;;;;;;9.25;100.00;99894.91;5115002;28;20214;-67
2022/04/23 04:10:56;;;;;;;33.97;27.37;;;;;;;9.27;100.00;99887.81;5114922;28;20188;-67
2022/04/23 04:13:27;;;;;;;36.30;27.67;;;;;;;9.38;100.00;99896.00;5114883;28;20185;-67
2022/04/23 04:15:57;;;;;;;36.53;27.80;;;;;;;9.29;100.00;99894.69;5114766;28;20201;-67
2022/04/23 04:18:28;;;;;;;36.13;26.63;;;;;;;9.19;100.00;99895.19;5114813;28;20192;-67
2022/04/23 04:20:58;;;;;;;39.03;27.10;;;;;;;9.19;100.00;99890.81;5115024;28;20199;-67
2022/04/23 04:23:27;;;;;;;41.33;27.07;;;;;;;9.20;100.00;99894.28;5114665;28;20287;-67
2022/04/23 04:25:57;;;;;;;34.30;26.27;;;;;;;9.15;100.00;99889.28;5114871;28;20227;-67
2022/04/23 04:28:25;;;;;;;36.90;26.60;;;;;;;9.26;100.00;99889.59;5114657;28;20207;-67
2022/04/23 04:33:39;;;;;;;31.13;26.63;;;;;;;9.14;100.00;99884.13;5113157;28;20187;-67
2022/04/23 04:36:07;;;;;;;32.87;27.17;;;;;;;9.16;100.00;99887.53;5114599;28;20199;-67
2022/04/23 04:38:35;;;;;;;36.53;26.90;;;;;;;9.29;100.00;99884.25;5114445;28;20203;-67
2022/04/23 04:41:05;;;;;;;32.83;27.40;;;;;;;9.33;100.00;99880.53;5114684;28;20174;-67
2022/04/23 04:43:35;;;;;;;33.03;26.67;;;;;;;9.43;100.00;99883.56;5114227;28;20221;-68
2022/04/23 04:46:08;;;;;;;33.20;26.47;;;;;;;9.37;100.00;99879.47;5114268;28;20208;-67
2022/04/23 04:48:38;;;;;;;35.80;27.30;;;;;;;9.46;100.00;99878.16;5114583;28;20174;-67
2022/04/23 04:51:08;;;;;;;32.60;26.23;;;;;;;9.47;100.00;99877.22;5114197;28;20196;-67
2022/04/23 04:53:38;;;;;;;34.40;27.33;;;;;;;9.47;100.00;99879.84;5114427;28;20189;-67
2022/04/23 04:56:07;;;;;;;36.73;27.80;;;;;;;9.45;100.00;99883.47;5114073;28;20235;-67
2022/04/23 04:58:37;;;;;;;32.67;26.37;;;;;;;9.38;100.00;99882.94;5114044;28;20676;-67
2022/04/23 05:01:05;;;;;;;34.30;27.00;;;;;;;9.52;100.00;99883.09;5114500;28;20202;-67
2022/04/23 05:03:35;;;;;;;32.77;26.50;;;;;;;9.50;100.00;99886.69;5114500;28;20249;-67
2022/04/23 05:06:06;;;;;;;34.50;26.90;;;;;;;9.56;100.00;99889.00;5113837;28;20688;-67
2022/04/23 05:08:36;;;;;;;34.57;25.83;;;;;;;9.65;100.00;99891.16;5114203;28;20646;-67
2022/04/23 05:11:10;;;;;;;37.50;27.47;;;;;;;9.63;100.00;99893.81;5114116;28;20262;-67
2022/04/23 05:13:40;;;;;;;34.07;26.97;;;;;;;9.61;100.00;99897.44;5113860;28;20547;-68
2022/04/23 05:16:08;;;;;;;36.60;28.57;;;;;;;9.78;100.00;99893.97;5113322;28;20228;-68
2022/04/23 05:18:39;;;;;;;35.23;27.73;;;;;;;10.00;99.44;99891.97;5113809;28;20185;-68
2022/04/23 05:21:07;;;;;;;47.07;28.17;;;;;;;9.99;99.38;99890.25;5114083;28;20186;-68
2022/04/23 05:23:37;;;;;;;34.73;28.00;;;;;;;9.99;99.49;99892.00;5114191;28;20608;-68
2022/04/23 05:26:10;;;;;;;42.27;28.47;;;;;;;10.06;98.81;99896.00;5113878;28;20241;-68
2022/04/23 05:28:41;;;;;;;36.20;27.63;;;;;;;10.22;98.16;99901.28;5113979;28;20171;-69
2022/04/23 05:31:11;;;;;;;35.60;27.93;;;;;;;10.23;97.47;99896.00;5113717;28;20234;-68
2022/04/23 05:33:39;;;;;;;36.10;28.40;;;;;;;10.29;96.95;99897.47;5113967;28;20511;-68
2022/04/23 05:36:06;;;;;;;40.27;28.83;;;;;;;10.43;96.04;99892.34;5113758;28;20581;-67
2022/04/23 05:38:39;;;;;;;37.10;28.83;;;;;;;10.39;95.86;99899.50;5113471;28;20640;-68
2022/04/23 05:41:07;;;;;;;38.27;27.70;;;;;;;10.47;95.27;99899.91;5113640;28;20541;-68
2022/04/23 05:43:37;;;;;;;38.13;30.03;;;;;;;10.47;95.40;99893.84;5114011;28;20561;-68
2022/04/23 05:46:09;;;;;;;36.57;28.07;;;;;;;10.52;94.71;99894.44;5117605;28;20216;-68
2022/04/23 05:48:41;;;;;;;37.57;29.50;;;;;;;10.57;94.38;99897.63;5117298;28;20204;-68
2022/04/23 05:51:10;;;;;;;39.03;29.20;;;;;;;10.62;94.04;99895.63;5117163;28;20549;-67
2022/04/23 05:53:38;;;;;;;38.57;27.70;;;;;;;10.64;94.10;99893.75;5117292;28;20204;-68
2022/04/23 05:56:15;;;;;;;35.07;28.57;;;;;;;10.65;94.22;99898.09;5117519;28;20271;-68
2022/04/23 05:58:48;;;;;;;42.07;28.97;;;;;;;10.70;93.68;99890.81;5117871;28;20615;-68
2022/04/23 06:01:15;;;;;;;40.70;28.37;;;;;;;10.82;93.73;99891.06;5117817;28;20181;-68
2022/04/23 06:03:51;;;;;;;35.33;28.40;;;;;;;10.88;92.84;99895.97;5117281;28;20238;-68
2022/04/23 06:06:22;;;;;;;36.03;27.87;;;;;;;10.89;92.32;99890.63;5117369;28;20262;-67
2022/04/23 06:08:50;;;;;;;34.90;28.87;;;;;;;10.96;92.54;99894.59;5117927;28;20229;-68
2022/04/23 06:11:18;;;;;;;37.30;28.97;;;;;;;11.10;91.90;99885.97;5117295;28;20181;-68
2022/04/23 06:13:48;;;;;;;34.67;27.63;;;;;;;11.11;91.82;99898.13;5117257;28;20193;-67
2022/04/23 06:16:18;;;;;;;36.80;29.87;;;;;;;11.14;91.43;99887.47;5117389;28;20600;-68
2022/04/23 06:18:48;;;;;;;40.47;28.23;;;;;;;11.28;90.65;99895.38;5117162;28;20190;-67
2022/04/23 06:21:19;;;;;;;38.10;29.30;;;;;;;11.39;90.17;99888.69;5117115;28;20669;-68
2022/04/23 06:23:47;;;;;;;37.90;28.03;;;;;;;11.43;89.47;99884.94;5117275;28;20677;-68
2022/04/23 06:26:17;;;;;;;39.57;28.53;;;;;;;11.47;88.72;99881.22;5116851;28;20209;-68
2022/04/23 06:28:44;;;;;;;35.40;29.10;;;;;;;11.47;89.17;99884.69;5111936;28;20663;-67
2022/04/23 06:31:12;;;;;;;38.60;28.57;;;;;;;11.46;88.75;99883.00;5117107;28;20763;-68
2022/04/23 06:33:44;;;;;;;33.87;28.43;;;;;;;11.55;88.45;99884.25;5110799;28;20552;-67
2022/04/23 06:36:13;;;;;;;32.80;27.27;;;;;;;11.62;88.26;99885.56;5114903;28;20265;-68
2022/04/23 06:38:43;;;;;;;34.73;28.10;;;;;;;11.73;87.86;99883.16;5115529;28;20188;-68
2022/04/23 06:41:14;;;;;;;42.53;30.30;;;;;;;11.79;87.29;99885.44;5115414;28;20196;-67
2022/04/23 06:43:41;;;;;;;33.03;27.67;;;;;;;11.91;86.99;99877.78;5115068;28;20201;-68
2022/04/23 06:46:14;;;;;;;37.17;29.73;;;;;;;11.84;86.27;99874.69;5115332;28;20204;-67
2022/04/23 06:48:41;;;;;;;34.67;27.43;;;;;;;12.04;86.31;99887.44;5115683;28;20185;-68
2022/04/23 06:51:11;;;;;;;37.77;29.17;;;;;;;12.00;85.83;99877.22;5115554;28;20185;-69
2022/04/23 06:53:39;;;;;;;35.97;27.90;;;;;;;12.14;86.17;99885.09;5115223;28;20181;-68
2022/04/23 06:56:09;;;;;;;33.47;28.33;;;;;;;12.20;85.09;99884.72;5115374;28;20201;-69
2022/04/23 06:58:45;;;;;;;42.07;28.50;;;;;;;12.28;85.65;99873.75;5115165;28;20170;-68
2022/04/23 07:01:13;;;;;;;39.30;30.47;;;;;;;12.52;84.08;99885.38;5115114;28;20193;-68
2022/04/23 07:03:41;;;;;;;31.43;27.57;;;;;;;12.48;83.51;99875.13;5115258;28;20231;-68
2022/04/23 07:06:11;;;;;;;31.67;26.97;;;;;;;12.63;83.76;99879.41;5115251;28;20205;-68
2022/04/23 07:08:49;;;;;;;32.40;26.57;;;;;;;12.76;82.94;99882.13;5115488;28;20169;-69
2022/04/23 07:11:19;;;;;;;32.67;27.47;;;;;;;12.98;82.61;99886.84;5115152;28;20183;-68
2022/04/23 07:14:01;;;;;;;33.23;27.03;;;;;;;13.07;81.90;99873.94;5110610;28;20190;-68
2022/04/23 07:16:31;;;;;;;34.20;27.17;;;;;;;13.11;81.61;99890.34;5114725;28;20204;-68
2022/04/23 07:19:00;;;;;;;33.40;27.53;;;;;;;13.06;81.13;99874.03;5115178;28;20172;-69
2022/04/23 07:21:31;;;;;;;31.73;25.47;;;;;;;13.17;80.34;99884.72;5113454;28;20195;-68
2022/04/23 07:24:05;;;;;;;41.00;27.80;;;;;;;13.21;79.10;99880.94;5115341;28;20224;-68
2022/04/23 07:26:34;;;;;;;35.47;26.97;;;;;;;13.15;79.97;99879.56;5114999;28;20201;-68
2022/04/23 07:29:10;;;;;;;38.80;26.67;;;;;;;13.15;79.38;99883.97;5114505;28;20242;-68
2022/04/23 07:31:38;;;;;;;30.57;27.37;;;;;;;13.23;79.25;99880.88;5096716;28;20173;-68
2022/04/23 07:39:51;;;;;;;34.33;27.50;;;;;;;13.30;78.46;99877.75;5115921;28;20168;-68
2022/04/23 07:42:19;;;;;;;30.43;26.70;;;;;;;13.28;77.65;99884.88;5115880;28;20182;-67
2022/04/23 07:44:49;;;;;;;39.33;26.97;;;;;;;13.44;78.40;99879.47;5115102;28;20213;-68
2022/04/23 07:47:18;;;;;;;31.87;26.50;;;;;;;13.62;77.54;99877.38;5114488;28;20224;-67
2022/04/23 07:49:52;;;;;;;34.93;26.77;;;;;;;13.44;78.00;99896.06;5116137;28;20184;-68
2022/04/23 07:52:26;;;;;;;32.50;26.83;;;;;;;13.59;77.61;99890.75;5114981;28;20193;-68
2022/04/23 07:54:56;;;;;;;36.80;26.67;;;;;;;13.76;78.21;99879.91;5110483;28;20251;-68
2022/04/23 07:57:24;;;;;;;34.80;26.37;;;;;;;13.90;77.15;99881.59;5110817;28;20208;-69
2022/04/23 07:59:51;;;;;;;36.17;26.93;;;;;;;13.89;76.17;99887.81;5115273;28;20614;-68
2022/04/23 08:02:19;;;;;;;46.13;28.67;;;;;;;13.81;76.40;99883.06;5115279;28;20181;-68
2022/04/23 08:04:49;;;;;;;32.90;26.87;;;;;;;13.87;77.07;99887.09;5095316;28;20224;-68
2022/04/23 08:07:23;;;;;;;31.17;26.37;;;;;;;13.90;75.87;99892.13;5113224;28;20685;-67
2022/04/23 08:09:53;;;;;;;31.77;26.00;;;;;;;13.73;75.79;99893.28;5114030;28;20671;-68
2022/04/23 08:12:23;;;;;;;34.80;27.53;;;;;;;13.60;76.34;99895.88;5115253;28;20294;-68
2022/04/23 08:14:54;;;;;;;42.37;27.80;;;;;;;13.67;76.78;99891.06;5115193;28;20663;-68
2022/04/23 08:17:22;;;;;;;35.33;26.93;;;;;;;13.68;77.09;99903.25;5114772;28;20236;-68
2022/04/23 08:19:52;;;;;;;33.87;27.07;;;;;;;13.77;76.23;99878.97;5114776;28;20639;-68
2022/04/23 08:22:29;;;;;;;34.43;28.00;;;;;;;13.90;76.25;99877.19;5114975;28;20173;-68
2022/04/23 08:24:59;;;;;;;34.90;27.27;;;;;;;13.97;76.36;99875.81;5114854;28;20195;-68
2022/04/23 08:30:34;;;;;;;35.73;26.50;;;;;;;13.99;76.19;99880.97;5112808;28;20315;-68
2022/04/23 08:30:52;;;;;;;32.03;25.53;;;;;;;14.03;73.99;99879.81;5110003;28;20670;-68
2022/04/23 08:33:20;;;;;;;34.40;27.37;;;;;;;14.08;74.61;99875.09;5114536;28;20598;-68
2022/04/23 08:35:54;;;;;;;33.93;26.47;;;;;;;14.12;74.15;99873.91;5109764;28;20185;-67
2022/04/23 08:38:22;;;;;;;39.00;26.43;;;;;;;14.23;75.13;99878.44;5114784;28;20201;-68
2022/04/23 08:40:49;;;;;;;37.03;26.90;;;;;;;14.25;74.80;99881.78;5113960;28;20193;-69
2022/04/23 08:43:20;;;;;;;46.03;27.93;;;;;;;14.25;74.15;99880.00;5114796;28;20244;-68
2022/04/23 08:45:56;;;;;;;38.63;26.73;;;;;;;14.45;74.93;99889.16;5108997;28;20232;-68
2022/04/23 08:48:34;;;;;;;28.70;25.17;;;;;;;14.49;73.78;99874.81;5110964;28;20188;-67
2022/04/23 08:51:03;;;;;;;37.60;27.57;;;;;;;14.68;73.87;99879.63;5107726;28;20192;-68
2022/04/23 08:53:37;;;;;;;32.00;26.37;;;;;;;14.57;73.94;99875.13;5109031;28;20215;-69
2022/04/23 08:56:09;;;;;;;36.00;28.10;;;;;;;14.58;73.75;99873.34;5113623;28;20217;-68
2022/04/23 08:58:39;;;;;;;36.17;27.37;;;;;;;14.86;74.55;99873.03;5114632;28;20174;-69
2022/04/23 09:01:07;;;;;;;36.90;27.90;;;;;;;14.90;72.27;99878.09;5114197;28;20583;-68
2022/04/23 09:03:36;;;;;;;30.80;26.13;;;;;;;14.99;73.85;99886.16;5113840;28;20185;-68
2022/04/23 09:06:04;;;;;;;37.57;27.63;;;;;;;14.99;71.72;99885.31;5094833;28;20621;-67
2022/04/23 09:08:31;;;;;;;36.33;28.70;;;;;;;14.73;72.76;99887.22;5114448;28;20234;-66
2022/04/23 09:10:59;;;;;;;35.10;28.03;;;;;;;14.88;73.40;99880.84;5104706;28;20550;-68
2022/04/23 09:13:28;;;;;;;37.30;27.50;;;;;;;14.70;72.52;99887.41;5093459;28;20530;-68
2022/04/23 09:24:54;;;;;;;30.53;24.73;;;;;;;14.99;73.10;99872.13;5093456;28;20216;-68
2022/04/23 09:27:31;;;;;;;41.43;26.07;;;;;;;15.32;72.27;99869.66;5089171;28;20221;-68
2022/04/23 09:30:14;;;;;;;38.00;25.77;;;;;;;15.58;71.46;99880.91;5113043;28;20204;-68
2022/04/23 09:33:00;;;;;;;40.43;26.77;;;;;;;15.47;70.53;99872.94;5113721;28;20215;-68
2022/04/23 09:35:29;;;;;;;34.53;27.00;;;;;;;15.51;70.13;99863.00;5098670;28;20190;-68
2022/04/23 09:38:17;;;;;;;35.03;26.27;;;;;;;15.74;70.16;99869.19;5093066;28;20225;-69
2022/04/23 09:40:57;;;;;;;31.83;24.50;;;;;;;15.71;68.86;99866.78;5104542;28;20196;-68
2022/04/23 09:43:33;;;;;;;31.23;25.13;;;;;;;15.65;68.94;99861.03;5113553;28;20293;-68
2022/04/23 09:46:04;;;;;;;33.07;26.73;;;;;;;15.66;68.50;99862.72;5113033;28;20217;-69
2022/04/23 09:48:43;;;;;;;33.50;24.83;;;;;;;15.73;70.26;99859.59;5112071;28;20192;-69
2022/04/23 09:51:24;;;;;;;29.10;23.70;;;;;;;16.00;68.00;99856.63;5113331;28;20185;-69
2022/04/23 09:53:54;;;;;;;37.23;25.37;;;;;;;16.06;68.38;99859.63;5111847;28;20208;-69
2022/04/23 09:56:28;;;;;;;29.37;24.43;;;;;;;16.32;68.21;99864.69;5109450;28;20629;-70
2022/04/23 09:59:06;;;;;;;30.80;25.37;;;;;;;16.13;66.82;99863.47;5110918;28;20208;-69
2022/04/23 10:01:35;;;;;;;39.33;25.27;;;;;;;16.19;66.76;99860.34;5111790;28;20242;-68
2022/04/23 10:04:04;;;;;;;39.90;23.47;;;;;;;16.08;67.18;99870.09;5111284;28;20566;-70
2022/04/23 10:06:37;;;;;;;31.17;22.80;;;;;;;16.22;67.52;99861.94;5112352;28;20236;-68
2022/04/23 10:09:08;;;;;;;30.90;25.13;;;;;;;16.16;65.72;99865.06;5091119;28;20189;-67
2022/04/23 10:11:45;;;;;;;41.20;24.10;;;;;;;16.21;67.48;99854.94;5105767;28;20213;-69
2022/04/23 10:14:30;;;;;;;34.43;24.13;;;;;;;16.56;67.32;99854.78;5091710;28;20698;-69
2022/04/23 10:17:04;;;;;;;31.10;22.97;;;;;;;16.42;64.88;99863.81;5106719;28;20209;-67
2022/04/23 10:19:33;;;;;;;35.57;23.17;;;;;;;16.36;65.65;99860.81;5109676;28;20185;-69
2022/04/23 10:22:14;;;;;;;36.43;24.30;;;;;;;16.15;65.77;99856.28;5111676;28;20635;-67
2022/04/23 10:24:48;;;;;;;29.10;23.87;;;;;;;16.29;66.74;99859.63;5112414;28;20662;-68
2022/04/23 10:27:18;;;;;;;40.67;22.83;;;;;;;16.41;65.67;99858.66;5109992;28;20209;-69
2022/04/23 10:29:51;;;;;;;27.87;22.53;;;;;;;16.36;66.36;99847.59;5110508;28;20185;-68
2022/04/23 10:32:24;;;;;;;26.77;22.83;;;;;;;16.58;64.76;99850.25;5116085;28;20196;-68
2022/04/23 10:34:53;;;;;;;27.97;21.53;;;;;;;16.64;65.02;99849.72;5116269;28;20170;-68
2022/04/23 10:37:25;;;;;;;40.47;22.73;;;;;;;16.30;64.87;99863.97;5115311;28;20233;-67
2022/04/23 10:39:52;;;;;;;25.17;21.93;;;;;;;16.39;64.72;99850.03;5114031;28;20208;-69
2022/04/23 10:42:31;;;;;;;44.73;21.10;;;;;;;16.41;64.05;99843.66;5080966;28;20315;-68
2022/04/23 10:45:06;;;;;;;36.33;22.03;;;;;;;16.50;63.51;99847.34;5095383;28;20201;-71
2022/04/23 10:47:39;;;;;;;24.70;22.10;;;;;;;16.54;63.62;99848.81;5088802;28;20281;-69
2022/04/23 10:50:16;;;;;;;40.07;22.13;;;;;;;16.40;63.23;99851.69;5110582;28;20185;-67
2022/04/23 10:52:50;;;;;;;27.07;22.53;;;;;;;16.48;63.86;99844.00;5112467;28;20199;-68
2022/04/23 10:55:21;;;;;;;29.00;22.77;;;;;;;16.37;64.03;99852.78;5115673;28;20184;-67
2022/04/23 10:57:55;;;;;;;36.13;22.60;;;;;;;16.40;64.38;99849.91;5112901;28;20201;-69
2022/04/23 11:00:30;;;;;;;34.47;22.43;;;;;;;16.48;63.48;99850.13;5113144;28;20214;-68
2022/04/23 11:03:09;;;;;;;26.47;21.90;;;;;;;16.58;63.41;99838.84;5114314;28;20197;-68
2022/04/23 11:14:52;;;;;;;33.83;21.07;;;;;;;16.80;62.29;99849.38;5110962;28;20193;-69
2022/04/23 11:17:24;;;;;;;26.53;20.83;;;;;;;16.82;63.10;99843.97;5116275;28;20228;-68
2022/04/23 11:20:03;;;;;;;42.47;22.97;;;;;;;16.82;62.62;99839.53;5114101;28;20196;-70
2022/04/23 11:22:31;;;;;;;29.30;22.63;;;;;;;16.80;62.62;99838.81;5114161;28;20189;-69
2022/04/23 11:25:04;;;;;;;24.50;21.90;;;;;;;16.85;63.44;99833.97;5112915;28;20557;-68
2022/04/23 11:27:36;;;;;;;27.60;21.73;;;;;;;17.14;62.09;99826.28;5113322;28;20213;-68
2022/04/23 11:30:06;;;;;;;24.53;19.10;;;;;;;17.33;60.67;99831.72;5114983;28;20205;-68
2022/04/23 11:32:36;;;;;;;24.23;19.53;;;;;;;17.29;59.11;99835.63;5115655;28;20235;-69
2022/04/23 11:35:05;;;;;;;34.83;20.13;;;;;;;17.30;58.78;99836.47;5114034;28;20205;-67
2022/04/23 11:37:46;;;;;;;22.43;20.20;;;;;;;17.34;59.36;99838.69;5114027;28;20224;-69
2022/04/23 11:40:28;;;;;;;23.87;19.27;;;;;;;17.21;59.78;99831.91;5112906;28;20189;-69
2022/04/23 11:42:56;;;;;;;28.77;20.20;;;;;;;17.35;60.09;99834.25;5112661;28;20181;-68
2022/04/23 11:45:24;;;;;;;21.80;19.70;;;;;;;17.37;57.83;99828.84;5096918;28;20257;-68
2022/04/23 11:47:52;;;;;;;23.80;21.27;;;;;;;17.53;60.25;99821.28;5114364;28;20243;-69
2022/04/23 11:50:22;;;;;;;25.73;21.37;;;;;;;17.53;59.26;99806.25;5114117;28;20209;-68
2022/04/23 11:53:03;;;;;;;23.23;20.40;;;;;;;17.25;58.14;99828.06;5115938;28;20185;-69
2022/04/23 11:55:33;;;;;;;23.43;20.80;;;;;;;17.16;59.31;99824.38;5114697;28;20647;-69
2022/04/23 11:58:05;;;;;;;23.33;20.03;;;;;;;17.06;59.28;99821.63;5115289;28;20176;-68
2022/04/23 12:00:35;;;;;;;23.33;19.67;;;;;;;16.93;58.82;99822.75;5115474;28;20180;-68
2022/04/23 12:03:03;;;;;;;22.07;19.93;;;;;;;17.09;59.19;99817.91;5115128;28;20659;-68
2022/04/23 12:05:34;;;;;;;22.43;20.27;;;;;;;17.00;59.52;99829.22;5114876;28;20739;-68